Time;durP1;ratioP1;P1;durP2;ratioP2;P2;SDS_P1;SDS_P2;PMS_P1;PMS_P2;Temp;Humidity;BMP_temperature;BMP_pressure;BME280_temperature;BME280_humidity;BME280_pressure;Samples;Min_cycle;Max_cycle;Signal;HPM_P1;HPM_P2
2022/03/06 00:01:13;;;;;;;15.13;10.15;;;1.30;99.90;;;;;;2166242;65;20729;-65
2022/03/06 00:03:55;;;;;;;16.50;9.45;;;1.40;99.90;;;;;;2172121;65;20371;-67
2022/03/06 00:06:37;;;;;;;13.80;9.55;;;1.40;99.90;;;;;;2162397;66;20637;-66
2022/03/06 00:09:19;;;;;;;13.38;10.02;;;1.60;99.90;;;;;;2143810;66;20815;-66
2022/03/06 00:12:05;;;;;;;10.98;8.25;;;1.60;99.90;;;;;;2143463;66;20431;-66
2022/03/06 00:14:47;;;;;;;12.57;8.98;;;1.60;99.90;;;;;;2133682;67;20239;-66
2022/03/06 00:17:29;;;;;;;14.18;8.15;;;1.70;99.90;;;;;;2120578;67;20304;-66
2022/03/06 00:20:14;;;;;;;10.80;7.88;;;1.80;99.90;;;;;;2125024;67;20331;-65
2022/03/06 00:22:57;;;;;;;10.98;8.20;;;1.80;99.90;;;;;;2117284;67;20338;-66
2022/03/06 00:25:41;;;;;;;;;;;1.90;99.90;;;;;;2125603;67;20235;-66
2022/03/06 00:28:24;;;;;;;10.30;7.93;;;1.90;99.90;;;;;;2118020;67;20348;-66
2022/03/06 00:31:08;;;;;;;10.77;7.63;;;1.90;99.90;;;;;;2118392;67;20234;-67
2022/03/06 00:33:53;;;;;;;11.88;7.88;;;1.90;99.90;;;;;;2111197;67;20358;-65
2022/03/06 00:36:37;;;;;;;9.88;7.65;;;1.90;99.90;;;;;;2111661;67;20839;-66
2022/03/06 00:39:18;;;;;;;10.30;7.70;;;1.90;99.90;;;;;;2119167;67;20386;-66
2022/03/06 00:42:00;;;;;;;8.63;7.40;;;1.90;99.90;;;;;;2122868;67;20286;-65
2022/03/06 00:44:42;;;;;;;9.65;7.43;;;1.90;99.90;;;;;;2129729;66;20356;-66
2022/03/06 00:47:25;;;;;;;11.30;7.15;;;1.90;99.90;;;;;;2135974;66;20314;-66
2022/03/06 00:50:13;;;;;;;9.18;6.25;;;1.90;99.90;;;;;;2150654;66;20841;-65
2022/03/06 00:52:57;;;;;;;9.40;6.53;;;1.90;99.90;;;;;;2154618;66;20214;-66
2022/03/06 00:55:41;;;;;;;11.48;6.65;;;2.00;99.90;;;;;;2157172;66;20358;-66
2022/03/06 00:58:24;;;;;;;12.90;7.00;;;1.90;99.90;;;;;;2154192;66;20266;-66
2022/03/06 01:01:06;;;;;;;9.77;6.22;;;1.90;99.90;;;;;;2159744;66;20206;-66
2022/03/06 01:03:48;;;;;;;11.60;6.47;;;1.90;99.90;;;;;;2160621;66;20349;-66
2022/03/06 01:06:35;;;;;;;10.30;6.43;;;2.20;99.90;;;;;;2155601;66;20477;-66
2022/03/06 01:09:19;;;;;;;9.80;6.53;;;2.00;99.90;;;;;;2145713;66;20212;-65
2022/03/06 01:12:01;;;;;;;11.23;6.40;;;2.00;99.90;;;;;;2138829;67;20163;-66
2022/03/06 01:14:48;;;;;;;8.85;6.57;;;2.00;99.90;;;;;;2124023;67;20208;-66
2022/03/06 01:17:30;;;;;;;10.00;6.85;;;2.00;99.90;;;;;;2144448;66;20604;-66
2022/03/06 01:20:12;;;;;;;7.78;6.05;;;2.00;99.90;;;;;;2140166;66;20657;-66
2022/03/06 01:22:56;;;;;;;11.82;6.78;;;2.10;99.90;;;;;;2138586;66;20380;-67
2022/03/06 01:25:42;;;;;;;11.00;6.95;;;2.10;99.90;;;;;;2137856;66;20228;-66
2022/03/06 01:28:24;;;;;;;7.13;6.32;;;2.10;99.90;;;;;;2145176;66;20240;-66
2022/03/06 01:31:06;;;;;;;8.05;5.93;;;2.10;99.90;;;;;;2144573;66;20222;-66
2022/03/06 01:33:48;;;;;;;8.75;5.68;;;2.10;99.90;;;;;;2124105;67;20294;-65
2022/03/06 01:36:31;;;;;;;7.53;6.28;;;2.10;99.90;;;;;;2131329;67;20163;-66
2022/03/06 01:39:14;;;;;;;8.10;5.65;;;2.10;99.90;;;;;;2123483;67;20731;-65
2022/03/06 01:41:58;;;;;;;9.60;6.13;;;2.10;99.90;;;;;;2117388;67;20310;-66
2022/03/06 01:44:40;;;;;;;7.32;6.10;;;2.10;99.90;;;;;;2149740;66;20402;-67
2022/03/06 01:47:49;;;;;;;7.63;6.15;;;2.10;99.90;;;;;;2161092;66;20334;-66
2022/03/06 01:50:38;;;;;;;10.23;5.93;;;2.10;99.90;;;;;;2154304;66;20402;-67
2022/03/06 01:53:20;;;;;;;10.65;5.75;;;2.10;99.90;;;;;;2147822;66;20300;-65
2022/03/06 01:56:03;;;;;;;7.82;5.30;;;2.10;99.90;;;;;;2133627;67;20381;-68
2022/03/06 01:58:44;;;;;;;8.65;5.57;;;2.10;99.90;;;;;;2132026;67;20418;-67
2022/03/06 02:01:27;;;;;;;7.63;5.93;;;2.00;99.90;;;;;;2118804;67;20324;-66
2022/03/06 02:04:11;;;;;;;10.48;6.78;;;2.00;99.90;;;;;;2128807;67;20249;-67
2022/03/06 02:06:53;;;;;;;9.73;6.43;;;2.00;99.90;;;;;;2132780;66;20190;-67
2022/03/06 02:09:35;;;;;;;7.72;5.70;;;1.90;99.90;;;;;;2161731;65;20353;-67
2022/03/06 02:12:23;;;;;;;7.95;4.78;;;2.00;99.90;;;;;;2161541;65;20172;-66
2022/03/06 02:15:07;;;;;;;9.15;5.28;;;1.90;99.90;;;;;;2152725;66;20684;-64
2022/03/06 02:17:49;;;;;;;8.55;4.85;;;1.90;99.90;;;;;;2133383;67;20796;-67
2022/03/06 02:20:34;;;;;;;6.95;4.35;;;1.90;99.90;;;;;;2131584;67;20243;-66
2022/03/06 02:23:21;;;;;;;7.97;4.60;;;1.90;99.90;;;;;;2123512;67;20212;-67
2022/03/06 02:26:07;;;;;;;6.03;4.72;;;1.90;99.90;;;;;;2131140;66;23936;-68
2022/03/06 02:28:49;;;;;;;6.03;4.65;;;1.90;99.90;;;;;;2148043;66;20240;-65
2022/03/06 02:31:32;;;;;;;5.32;4.15;;;1.90;99.90;;;;;;2140627;66;20322;-66
2022/03/06 02:34:14;;;;;;;8.50;4.47;;;1.90;99.90;;;;;;2145359;66;20259;-66
2022/03/06 02:37:00;;;;;;;5.60;3.90;;;1.90;99.90;;;;;;2138345;66;20372;-65
2022/03/06 02:39:46;;;;;;;8.32;3.80;;;1.90;99.90;;;;;;2143885;66;20323;-66
2022/03/06 02:42:33;;;;;;;5.93;4.03;;;1.90;99.90;;;;;;2123244;67;20206;-66
2022/03/06 02:45:20;;;;;;;5.53;3.88;;;1.90;99.90;;;;;;2110450;67;20375;-68
2022/03/06 02:48:02;;;;;;;6.40;4.00;;;1.90;99.90;;;;;;2124561;67;20886;-65
2022/03/06 02:50:44;;;;;;;6.03;3.78;;;1.90;99.90;;;;;;2131132;67;20319;-66
2022/03/06 02:53:26;;;;;;;7.13;3.60;;;1.80;99.90;;;;;;2130759;67;20815;-66
2022/03/06 02:56:08;;;;;;;5.82;3.83;;;1.80;99.90;;;;;;2110554;67;20432;-67
2022/03/06 02:58:51;;;;;;;6.80;4.35;;;1.80;99.90;;;;;;2111821;67;20322;-64
2022/03/06 03:01:40;;;;;;;8.43;4.28;;;1.70;99.90;;;;;;2111778;67;20835;-66
2022/03/06 03:04:22;;;;;;;5.70;4.43;;;1.70;99.90;;;;;;2099345;68;20761;-65
2022/03/06 03:07:05;;;;;;;7.05;4.28;;;1.80;99.90;;;;;;2103479;67;20166;-66
2022/03/06 03:09:46;;;;;;;6.00;4.40;;;1.70;99.90;;;;;;2103486;67;20296;-66
2022/03/06 03:12:28;;;;;;;7.63;4.10;;;1.70;99.90;;;;;;2119608;67;20183;-66
2022/03/06 03:15:10;;;;;;;4.93;3.95;;;1.60;99.90;;;;;;2142296;66;20335;-66
2022/03/06 03:17:53;;;;;;;7.07;4.57;;;1.60;99.90;;;;;;2146900;66;20405;-66
2022/03/06 03:20:40;;;;;;;9.73;4.70;;;1.60;99.90;;;;;;2159051;66;20198;-67
2022/03/06 03:23:23;;;;;;;9.50;4.13;;;1.70;99.90;;;;;;2141647;66;20923;-65
2022/03/06 03:26:05;;;;;;;8.57;4.40;;;1.60;99.90;;;;;;2144612;66;20412;-66
2022/03/06 03:28:50;;;;;;;8.30;4.43;;;1.60;99.90;;;;;;2137747;66;20792;-65
2022/03/06 03:31:32;;;;;;;6.47;4.63;;;1.60;99.90;;;;;;2137279;67;20248;-67
2022/03/06 03:34:13;;;;;;;7.13;4.53;;;1.60;99.90;;;;;;2129063;67;20749;-66
2022/03/06 03:36:55;;;;;;;7.95;4.28;;;1.60;99.90;;;;;;2131085;67;20343;-66
2022/03/06 03:39:39;;;;;;;6.78;4.43;;;1.80;99.90;;;;;;2137852;66;20224;-66
2022/03/06 03:42:23;;;;;;;9.63;4.78;;;1.60;99.90;;;;;;2134241;66;20386;-66
2022/03/06 03:45:06;;;;;;;8.32;4.68;;;1.50;99.90;;;;;;2135917;67;20378;-67
2022/03/06 03:47:48;;;;;;;6.05;4.20;;;1.50;99.90;;;;;;2130383;67;20309;-66
2022/03/06 03:50:29;;;;;;;7.95;4.63;;;1.60;99.90;;;;;;2139855;66;20363;-66
2022/03/06 03:53:11;;;;;;;7.32;4.97;;;1.40;99.90;;;;;;2124059;67;20289;-65
2022/03/06 03:55:52;;;;;;;7.43;4.80;;;1.80;99.90;;;;;;2125344;67;20397;-66
2022/03/06 03:58:35;;;;;;;7.72;4.45;;;1.20;99.90;;;;;;2125546;67;20256;-65
2022/03/06 04:01:20;;;;;;;7.10;5.13;;;1.10;99.90;;;;;;2138412;66;20336;-67
2022/03/06 04:04:02;;;;;;;9.07;4.57;;;1.10;99.90;;;;;;2132983;67;20401;-66
2022/03/06 04:06:43;;;;;;;8.77;4.70;;;1.10;99.90;;;;;;2125503;67;20268;-65
2022/03/06 04:09:27;;;;;;;10.98;5.60;;;1.00;99.90;;;;;;2119488;67;20303;-66
2022/03/06 04:12:12;;;;;;;6.13;4.43;;;1.00;99.90;;;;;;2121454;67;20414;-65
2022/03/06 04:15:01;;;;;;;7.85;5.00;;;1.00;99.90;;;;;;2111504;67;20201;-66
2022/03/06 04:17:46;;;;;;;7.82;4.65;;;1.00;99.90;;;;;;2133252;66;20325;-66
2022/03/06 04:20:29;;;;;;;8.35;5.10;;;0.90;99.90;;;;;;2141668;66;20417;-66
2022/03/06 04:23:13;;;;;;;;;;;0.80;99.90;;;;;;2140831;66;20327;-66
2022/03/06 04:25:58;;;;;;;5.22;4.35;;;0.80;99.90;;;;;;2144811;66;20086;-66
2022/03/06 04:28:39;;;;;;;7.32;4.63;;;0.70;99.90;;;;;;2140831;66;20252;-65
2022/03/06 04:31:21;;;;;;;7.30;5.43;;;0.60;99.90;;;;;;2131965;67;20392;-66
2022/03/06 04:34:06;;;;;;;10.18;5.03;;;0.60;99.90;;;;;;2139335;67;20304;-66
2022/03/06 04:36:48;;;;;;;9.88;4.85;;;0.50;99.90;;;;;;2140621;66;20247;-67
2022/03/06 04:39:31;;;;;;;6.65;5.22;;;0.40;99.90;;;;;;2153303;66;20372;-66
2022/03/06 04:42:15;;;;;;;;;;;0.30;99.90;;;;;;2162730;66;20393;-66
2022/03/06 04:44:57;;;;;;;7.90;4.50;;;0.30;99.90;;;;;;2161586;66;20127;-66
2022/03/06 04:47:39;;;;;;;8.10;4.85;;;0.20;99.90;;;;;;2152147;66;20242;-65
2022/03/06 04:50:21;;;;;;;7.72;5.13;;;0.20;99.90;;;;;;2165518;65;20343;-65
2022/03/06 04:53:03;;;;;;;6.30;4.40;;;0.20;99.90;;;;;;2163454;66;20231;-67
2022/03/06 04:55:46;;;;;;;6.07;4.50;;;0.20;99.90;;;;;;2180641;65;20387;-66
2022/03/06 04:58:32;;;;;;;6.78;4.75;;;0.10;99.90;;;;;;2161846;66;20888;-66
2022/03/06 05:01:16;;;;;;;11.27;5.18;;;0.10;99.90;;;;;;2159025;66;20884;-65
2022/03/06 05:04:01;;;;;;;6.88;4.35;;;0.00;99.90;;;;;;2136091;67;20309;-66
2022/03/06 05:06:46;;;;;;;7.28;4.80;;;0.00;99.90;;;;;;2132302;67;20269;-67
2022/03/06 05:09:30;;;;;;;6.82;4.53;;;-0.10;99.90;;;;;;2124558;67;20746;-65
2022/03/06 05:12:12;;;;;;;8.52;4.40;;;0.00;99.90;;;;;;2105515;67;20283;-66
2022/03/06 05:14:57;;;;;;;10.48;4.35;;;0.70;99.90;;;;;;2096428;68;20707;-66
2022/03/06 05:17:41;;;;;;;11.43;4.88;;;-0.10;99.90;;;;;;2082997;68;20344;-66
2022/03/06 05:20:23;;;;;;;7.75;3.92;;;-0.10;99.90;;;;;;2082546;68;20258;-65
2022/03/06 05:23:05;;;;;;;9.52;4.35;;;-0.20;99.90;;;;;;2089892;68;20404;-66
2022/03/06 05:25:47;;;;;;;6.53;4.55;;;-0.20;99.90;;;;;;2090016;68;20433;-66
2022/03/06 05:28:29;;;;;;;8.80;4.43;;;-0.20;99.90;;;;;;2100508;67;20327;-66
2022/03/06 05:31:11;;;;;;;8.15;3.72;;;-0.20;99.90;;;;;;2103353;67;20174;-66
2022/03/06 05:33:56;;;;;;;8.30;3.63;;;-0.20;99.90;;;;;;2097505;68;20190;-65
2022/03/06 05:36:38;;;;;;;5.45;3.45;;;-0.20;99.90;;;;;;2109111;67;20209;-65
2022/03/06 05:39:19;;;;;;;7.22;4.50;;;-0.30;99.90;;;;;;2111938;67;20300;-65
2022/03/06 05:42:02;;;;;;;6.90;4.30;;;-0.30;99.90;;;;;;2103574;67;20325;-64
2022/03/06 05:44:44;;;;;;;6.22;3.80;;;-0.30;99.90;;;;;;2132282;66;20896;-65
2022/03/06 05:47:26;;;;;;;8.07;4.10;;;-0.30;99.90;;;;;;2153305;66;20235;-66
2022/03/06 05:50:11;;;;;;;5.65;3.95;;;-0.30;99.90;;;;;;2152630;66;20274;-65
2022/03/06 05:52:55;;;;;;;6.40;3.75;;;-0.40;99.90;;;;;;2152977;66;20173;-67
2022/03/06 05:55:38;;;;;;;5.60;4.30;;;-0.40;99.90;;;;;;2139963;66;20654;-66
2022/03/06 05:58:24;;;;;;;6.20;4.05;;;-0.50;99.90;;;;;;2131571;67;20409;-66
2022/03/06 06:01:08;;;;;;;7.10;4.22;;;-0.50;99.90;;;;;;2145225;66;20902;-65
2022/03/06 06:03:50;;;;;;;6.05;3.95;;;-0.50;99.90;;;;;;2146842;66;20335;-66
2022/03/06 06:06:35;;;;;;;6.80;4.15;;;-0.60;99.90;;;;;;2144906;66;20188;-67
2022/03/06 06:09:17;;;;;;;11.18;5.15;;;-0.60;99.90;;;;;;2139441;66;20363;-66
2022/03/06 06:11:59;;;;;;;6.50;4.18;;;-0.60;99.90;;;;;;2140028;66;20387;-68
2022/03/06 06:14:41;;;;;;;6.68;4.07;;;-0.60;99.90;;;;;;2147135;66;20221;-65
2022/03/06 06:17:23;;;;;;;6.93;4.32;;;-0.40;99.90;;;;;;2137915;66;20288;-66
2022/03/06 06:20:09;;;;;;;7.78;4.80;;;-0.60;99.90;;;;;;2146518;66;20215;-67
2022/03/06 06:22:54;;;;;;;7.90;4.88;;;-0.60;99.90;;;;;;2153579;66;20181;-66
2022/03/06 06:25:36;;;;;;;6.22;4.22;;;-0.60;99.90;;;;;;2138634;66;20273;-66
2022/03/06 06:28:19;;;;;;;6.22;4.28;;;-0.60;99.90;;;;;;2122935;67;20589;-66
2022/03/06 06:31:05;;;;;;;5.97;4.00;;;-0.60;99.90;;;;;;2123673;67;20332;-66
2022/03/06 06:33:47;;;;;;;5.10;3.28;;;-0.60;99.90;;;;;;2118218;67;20362;-67
2022/03/06 06:36:29;;;;;;;5.78;3.50;;;-0.60;99.90;;;;;;2138676;66;20356;-66
2022/03/06 06:39:11;;;;;;;3.83;2.78;;;-0.60;99.90;;;;;;2146457;66;20217;-65
2022/03/06 06:41:54;;;;;;;5.07;3.30;;;-0.60;99.90;;;;;;2132788;67;20215;-65
2022/03/06 06:44:44;;;;;;;4.65;2.85;;;-0.60;99.90;;;;;;2137621;67;20202;-66
2022/03/06 06:47:26;;;;;;;3.08;2.53;;;-0.60;99.90;;;;;;2126975;67;20685;-66
2022/03/06 06:50:09;;;;;;;3.85;2.88;;;-0.50;99.90;;;;;;2121174;67;20428;-65
2022/03/06 06:52:51;;;;;;;4.00;2.42;;;-0.50;99.90;;;;;;2126786;67;20247;-67
2022/03/06 06:55:34;;;;;;;4.45;2.30;;;-0.50;99.90;;;;;;2122907;67;20583;-65
2022/03/06 06:58:17;;;;;;;5.80;3.03;;;-0.50;99.90;;;;;;2116427;67;20239;-66
2022/03/06 07:00:59;;;;;;;3.90;2.17;;;-0.40;99.90;;;;;;2124281;67;20169;-66
2022/03/06 07:03:41;;;;;;;4.45;2.67;;;-0.40;99.90;;;;;;2132757;67;20197;-67
2022/03/06 07:06:23;;;;;;;5.20;2.53;;;-0.30;99.90;;;;;;2133485;67;20239;-67
2022/03/06 07:09:07;;;;;;;3.15;2.55;;;-0.30;99.90;;;;;;2126801;67;20376;-66
2022/03/06 07:11:49;;;;;;;2.83;2.55;;;-0.20;99.90;;;;;;2110258;67;20174;-66
2022/03/06 07:14:31;;;;;;;3.60;2.75;;;-0.20;99.90;;;;;;2121469;67;20252;-66
2022/03/06 07:17:13;;;;;;;6.03;2.58;;;-0.20;99.90;;;;;;2116513;67;20173;-67
2022/03/06 07:19:55;;;;;;;4.63;3.13;;;-0.10;99.90;;;;;;2122496;67;20319;-66
2022/03/06 07:22:42;;;;;;;5.55;2.25;;;-0.10;99.90;;;;;;2131215;67;20230;-66
2022/03/06 07:25:26;;;;;;;4.63;2.63;;;0.00;99.90;;;;;;2139035;66;20317;-65
2022/03/06 07:28:08;;;;;;;5.55;2.90;;;0.10;99.90;;;;;;2160696;66;20866;-66
2022/03/06 07:30:51;;;;;;;3.85;2.60;;;0.20;99.90;;;;;;2145878;66;20256;-65
2022/03/06 07:33:33;;;;;;;2.88;2.05;;;0.30;99.90;;;;;;2150944;66;20673;-66
2022/03/06 07:36:15;;;;;;;2.90;2.42;;;0.40;99.90;;;;;;2153678;66;20198;-66
2022/03/06 07:38:57;;;;;;;2.50;2.10;;;0.40;99.90;;;;;;2161447;66;20725;-66
2022/03/06 07:41:39;;;;;;;2.45;2.22;;;0.50;99.90;;;;;;2160261;66;20982;-66
2022/03/06 07:44:21;;;;;;;2.95;2.30;;;0.60;99.90;;;;;;2159639;66;20273;-66
2022/03/06 07:47:03;;;;;;;3.22;2.10;;;0.70;99.90;;;;;;2158647;66;20302;-65
2022/03/06 07:49:47;;;;;;;4.03;2.08;;;0.80;99.90;;;;;;2150743;66;20181;-65
2022/03/06 07:52:33;;;;;;;2.30;2.05;;;0.80;99.90;;;;;;2153623;66;20382;-66
2022/03/06 07:55:14;;;;;;;4.22;2.42;;;0.90;99.90;;;;;;2143853;66;20283;-66
2022/03/06 07:57:56;;;;;;;2.28;1.90;;;1.20;99.90;;;;;;2131179;67;20308;-66
2022/03/06 08:00:38;;;;;;;4.30;2.13;;;1.20;99.90;;;;;;2123102;67;20317;-67
2022/03/06 08:03:20;;;;;;;2.38;1.67;;;1.30;99.90;;;;;;2129798;67;20313;-66
2022/03/06 08:06:02;;;;;;;4.72;2.20;;;1.40;99.90;;;;;;2114907;67;20307;-67
2022/03/06 08:08:44;;;;;;;4.30;2.40;;;1.40;99.90;;;;;;2128643;67;20406;-66
2022/03/06 08:11:26;;;;;;;2.33;1.83;;;1.60;99.90;;;;;;2141168;66;20413;-65
2022/03/06 08:14:11;;;;;;;2.57;1.70;;;1.60;99.90;;;;;;2134101;67;20207;-67
2022/03/06 08:16:54;;;;;;;5.63;2.30;;;1.70;99.90;;;;;;2125314;67;20741;-65
2022/03/06 08:19:38;;;;;;;3.75;2.40;;;1.70;99.90;;;;;;2133648;67;20815;-66
2022/03/06 08:22:23;;;;;;;3.75;2.10;;;1.80;99.90;;;;;;2134000;67;20810;-67
2022/03/06 08:25:21;;;;;;;2.72;2.08;;;1.90;99.90;;;;;;2149271;66;20233;-66
2022/03/06 08:28:04;;;;;;;3.55;2.53;;;1.90;99.90;;;;;;2145700;66;20175;-66
2022/03/06 08:30:47;;;;;;;3.03;2.35;;;2.00;99.90;;;;;;2131245;67;20744;-67
2022/03/06 08:33:32;;;;;;;3.35;2.33;;;2.00;99.90;;;;;;2138639;66;20463;-66
2022/03/06 08:36:15;;;;;;;3.42;2.20;;;2.10;99.90;;;;;;2136900;67;20182;-66
2022/03/06 08:39:00;;;;;;;3.92;2.40;;;2.20;99.90;;;;;;2141122;66;20262;-66
2022/03/06 08:41:43;;;;;;;3.90;2.20;;;2.20;99.90;;;;;;2132196;67;20219;-66
2022/03/06 08:44:27;;;;;;;;;;;2.30;99.90;;;;;;2132567;66;20255;-66
2022/03/06 08:47:11;;;;;;;2.50;1.63;;;2.30;99.90;;;;;;2138750;66;20129;-65
2022/03/06 08:49:53;;;;;;;3.88;1.80;;;2.40;99.90;;;;;;2154392;66;20165;-65
2022/03/06 08:52:35;;;;;;;2.05;1.80;;;2.50;99.90;;;;;;2167404;65;20368;-65
2022/03/06 08:55:17;;;;;;;4.22;2.17;;;2.50;99.90;;;;;;2168843;65;20316;-65
2022/03/06 08:57:59;;;;;;;2.60;1.98;;;2.60;99.90;;;;;;2160561;66;20220;-66
2022/03/06 09:00:42;;;;;;;4.78;1.92;;;2.60;99.90;;;;;;2151845;66;20311;-67
2022/03/06 09:03:27;;;;;;;4.07;2.25;;;2.70;99.90;;;;;;2146091;66;20174;-67
2022/03/06 09:06:12;;;;;;;2.97;1.80;;;2.80;99.90;;;;;;2131535;67;20243;-65
2022/03/06 09:08:55;;;;;;;4.53;1.92;;;2.80;99.90;;;;;;2125945;67;20372;-67
2022/03/06 09:11:40;;;;;;;4.32;2.35;;;2.80;99.90;;;;;;2128907;67;21017;-66
2022/03/06 09:14:23;;;;;;;2.33;2.10;;;2.90;99.90;;;;;;2145830;66;20249;-66
2022/03/06 09:17:09;;;;;;;4.28;1.85;;;2.90;99.90;;;;;;2145899;66;20386;-67
2022/03/06 09:19:52;;;;;;;4.88;2.00;;;3.10;99.90;;;;;;2145786;66;20394;-65
2022/03/06 09:22:38;;;;;;;2.35;1.95;;;3.00;99.90;;;;;;2132782;67;20715;-66
2022/03/06 09:25:24;;;;;;;2.85;2.15;;;3.10;99.90;;;;;;2131250;67;20180;-66
2022/03/06 09:28:08;;;;;;;3.58;1.77;;;3.10;99.90;;;;;;2145595;66;20217;-65
2022/03/06 09:30:50;;;;;;;2.85;2.00;;;3.20;99.90;;;;;;2148186;66;20875;-67
2022/03/06 09:33:35;;;;;;;3.72;2.30;;;3.20;99.90;;;;;;2167721;66;20192;-66
2022/03/06 09:36:18;;;;;;;3.20;2.15;;;3.40;99.90;;;;;;2161976;66;20293;-65
2022/03/06 09:39:02;;;;;;;3.20;2.20;;;3.30;99.90;;;;;;2158995;66;20670;-67
2022/03/06 09:41:47;;;;;;;4.03;2.10;;;3.30;99.90;;;;;;2151918;66;20261;-67
2022/03/06 09:44:30;;;;;;;5.63;2.30;;;3.30;99.90;;;;;;2163819;65;20191;-65
2022/03/06 09:47:14;;;;;;;6.80;2.50;;;3.30;99.90;;;;;;2153706;66;20162;-67
2022/03/06 09:49:56;;;;;;;2.90;1.95;;;3.40;99.90;;;;;;2159707;65;20435;-65
2022/03/06 09:52:37;;;;;;;4.75;2.63;;;3.50;99.90;;;;;;2167010;65;20332;-65
2022/03/06 09:55:21;;;;;;;2.78;2.45;;;3.60;99.90;;;;;;2151269;66;20206;-65
2022/03/06 09:58:10;;;;;;;3.72;1.98;;;3.80;99.90;;;;;;2137237;66;20281;-66
2022/03/06 10:00:52;;;;;;;4.65;2.28;;;4.10;99.90;;;;;;2104469;67;20291;-68
2022/03/06 10:03:37;;;;;;;5.57;2.67;;;4.40;99.90;;;;;;2102114;67;20714;-67
2022/03/06 10:06:23;;;;;;;3.35;2.63;;;4.70;99.90;;;;;;2123247;67;20368;-66
2022/03/06 10:09:11;;;;;;;3.45;2.60;;;4.80;99.90;;;;;;2138147;66;20707;-66
2022/03/06 10:11:56;;;;;;;3.38;2.13;;;4.90;99.90;;;;;;2137474;66;20195;-66
2022/03/06 10:14:41;;;;;;;3.25;2.30;;;5.20;99.90;;;;;;2123707;67;20680;-67
2022/03/06 10:17:26;;;;;;;3.88;2.55;;;5.30;99.90;;;;;;2131212;66;20226;-66
2022/03/06 10:20:23;;;;;;;4.80;2.22;;;5.40;99.90;;;;;;2130864;67;20438;-67
2022/03/06 10:23:22;;;;;;;4.22;2.22;;;5.40;99.90;;;;;;2117899;67;20436;-66
2022/03/06 10:26:10;;;;;;;3.25;2.50;;;5.30;99.90;;;;;;2115364;67;20228;-67
2022/03/06 10:28:54;;;;;;;3.28;2.20;;;5.20;99.90;;;;;;2131699;67;20215;-66
2022/03/06 10:31:55;;;;;;;3.35;2.80;;;5.80;99.90;;;;;;2128145;67;20268;-66
2022/03/06 10:34:45;;;;;;;5.25;3.28;;;5.20;99.90;;;;;;2147010;66;20322;-67
2022/03/06 10:37:31;;;;;;;3.95;2.53;;;5.20;99.90;;;;;;2143611;66;20363;-66
2022/03/06 10:40:14;;;;;;;4.28;2.40;;;5.60;99.90;;;;;;2130149;66;20210;-65
2022/03/06 10:42:56;;;;;;;5.85;2.72;;;5.40;99.90;;;;;;2124959;67;20607;-65
2022/03/06 10:45:39;;;;;;;3.38;2.22;;;5.50;99.90;;;;;;2129253;67;20275;-66
2022/03/06 10:48:21;;;;;;;5.10;1.95;;;5.90;99.90;;;;;;2139498;66;20191;-65
2022/03/06 10:51:06;;;;;;;3.65;2.33;;;5.80;99.90;;;;;;2131369;67;20465;-66
2022/03/06 10:53:57;;;;;;;3.03;2.53;;;6.00;99.90;;;;;;2131695;66;20327;-67
2022/03/06 10:56:48;;;;;;;4.25;2.08;;;6.10;99.90;;;;;;2159929;66;20259;-67
2022/03/06 10:59:34;;;;;;;3.35;2.60;;;6.40;99.90;;;;;;2147992;66;20236;-67
2022/03/06 11:02:17;;;;;;;4.18;2.38;;;6.70;99.90;;;;;;2153166;66;20381;-67
2022/03/06 11:05:01;;;;;;;6.80;2.70;;;7.00;99.90;;;;;;2170968;65;20320;-66
2022/03/06 11:07:51;;;;;;;2.53;2.17;;;7.40;99.90;;;;;;2168539;65;20266;-66
2022/03/06 11:10:34;;;;;;;3.83;2.10;;;7.90;99.90;;;;;;2164394;65;20688;-65
2022/03/06 11:13:18;;;;;;;4.15;2.30;;;8.40;99.50;;;;;;2153853;66;20442;-68
2022/03/06 11:16:02;;;;;;;3.95;2.75;;;8.90;96.70;;;;;;2159643;66;20203;-66
2022/03/06 11:18:52;;;;;;;3.53;2.50;;;9.50;93.40;;;;;;2158390;66;20201;-67
2022/03/06 11:21:35;;;;;;;7.30;3.60;;;10.00;88.20;;;;;;2158876;66;20177;-67
2022/03/06 11:24:21;;;;;;;3.97;2.22;;;10.10;81.10;;;;;;2161456;65;20212;-67
2022/03/06 11:27:20;;;;;;;3.88;2.65;;;10.20;78.70;;;;;;2169875;65;20344;-67
2022/03/06 11:30:04;;;;;;;5.28;2.78;;;10.50;75.30;;;;;;2154293;66;20246;-66
2022/03/06 11:32:47;;;;;;;2.97;2.40;;;10.70;74.20;;;;;;2141448;66;20432;-67
2022/03/06 11:35:32;;;;;;;5.32;2.67;;;11.00;71.40;;;;;;2124199;67;20219;-66
2022/03/06 11:38:17;;;;;;;3.10;2.05;;;11.30;69.50;;;;;;2120307;67;20350;-67
2022/03/06 11:41:09;;;;;;;4.82;2.65;;;11.50;67.60;;;;;;2126326;67;20641;-69
2022/03/06 11:43:55;;;;;;;4.47;2.55;;;11.70;66.90;;;;;;1895994;67;15138868;-69
2022/03/06 11:46:39;;;;;;;5.05;2.70;;;11.70;66.10;;;;;;2113380;67;20350;-67
2022/03/06 11:49:33;;;;;;;3.95;2.60;;;11.90;65.20;;;;;;2110350;67;20281;-66
2022/03/06 11:52:36;;;;;;;3.83;2.55;;;11.90;64.50;;;;;;2121890;67;20752;-65
2022/03/06 11:55:36;;;;;;;3.42;2.50;;;11.90;63.50;;;;;;2140487;66;20206;-68
2022/03/06 11:58:52;;;;;;;4.05;2.55;;;11.80;62.70;;;;;;2144341;66;20277;-66
2022/03/06 12:01:40;;;;;;;4.57;2.40;;;11.60;63.50;;;;;;2131556;67;20700;-66
2022/03/06 12:04:39;;;;;;;4.65;2.67;;;11.30;62.90;;;;;;2154534;66;20262;-67
2022/03/06 12:07:25;;;;;;;4.55;2.97;;;11.10;62.90;;;;;;2148369;66;20233;-66
2022/03/06 12:10:10;;;;;;;4.85;2.92;;;10.90;63.10;;;;;;2146151;66;20590;-66
2022/03/06 12:12:57;;;;;;;3.85;2.80;;;10.70;63.60;;;;;;2137117;66;20327;-65
2022/03/06 12:15:40;;;;;;;5.55;2.42;;;10.50;63.50;;;;;;2137007;66;20915;-66
2022/03/06 12:18:23;;;;;;;3.05;2.53;;;10.30;63.90;;;;;;2119837;66;20325;-67
2022/03/06 12:21:19;;;;;;;2.83;2.33;;;10.30;64.50;;;;;;2129997;67;20616;-66
2022/03/06 12:24:12;;;;;;;5.80;2.60;;;10.20;63.80;;;;;;2138216;66;20875;-67
2022/03/06 12:26:55;;;;;;;4.25;2.17;;;10.10;64.70;;;;;;2143021;66;20178;-69
2022/03/06 12:29:54;;;;;;;4.43;2.55;;;10.20;65.00;;;;;;2153467;66;20374;-66
2022/03/06 12:32:37;;;;;;;4.78;2.47;;;10.60;65.00;;;;;;2148672;66;20197;-69
2022/03/06 12:35:22;;;;;;;6.15;2.50;;;10.70;64.90;;;;;;2136270;66;20649;-68
2022/03/06 12:38:05;;;;;;;3.80;2.40;;;10.80;64.90;;;;;;2130668;67;20591;-70
2022/03/06 12:40:50;;;;;;;3.17;2.05;;;10.90;65.00;;;;;;2128984;67;20298;-68
2022/03/06 12:44:02;;;;;;;2.78;2.10;;;11.00;65.00;;;;;;2131160;66;20213;-68
2022/03/06 12:46:44;;;;;;;4.43;2.28;;;11.00;64.00;;;;;;2139559;66;20619;-69
2022/03/06 12:49:28;;;;;;;3.88;2.30;;;11.10;64.70;;;;;;2148037;66;20264;-68
2022/03/06 12:52:16;;;;;;;3.75;2.38;;;11.10;64.40;;;;;;2134732;67;20715;-68
2022/03/06 12:55:00;;;;;;;4.00;2.60;;;11.30;64.50;;;;;;2144407;66;20193;-67
2022/03/06 12:58:03;;;;;;;5.65;2.50;;;11.40;64.70;;;;;;2160853;66;20198;-68
2022/03/06 13:00:46;;;;;;;4.60;2.35;;;11.60;64.00;;;;;;2152510;66;20309;-66
2022/03/06 13:03:34;;;;;;;4.00;2.38;;;12.00;64.20;;;;;;2151440;66;20768;-66
2022/03/06 13:06:19;;;;;;;5.00;2.00;;;12.70;63.90;;;;;;2142014;66;20845;-67
2022/03/06 13:09:01;;;;;;;4.28;2.10;;;13.50;62.20;;;;;;2159915;66;20401;-67
2022/03/06 13:11:49;;;;;;;2.50;1.85;;;14.00;60.80;;;;;;2138777;66;20245;-66
2022/03/06 13:14:38;;;;;;;4.75;1.95;;;14.10;59.40;;;;;;2139306;66;20224;-68
2022/03/06 13:17:21;;;;;;;3.47;2.25;;;13.90;58.20;;;;;;2129111;67;20243;-67
2022/03/06 13:20:04;;;;;;;5.10;2.33;;;13.90;58.00;;;;;;2140969;66;20764;-67
2022/03/06 13:22:46;;;;;;;4.72;2.00;;;13.90;57.50;;;;;;2129900;67;20255;-68
2022/03/06 13:25:29;;;;;;;5.10;2.10;;;13.90;57.80;;;;;;2142386;66;20323;-67
2022/03/06 13:28:12;;;;;;;4.40;2.63;;;13.90;57.20;;;;;;2160838;66;20220;-66
2022/03/06 13:30:59;;;;;;;2.35;1.80;;;13.90;57.30;;;;;;2154872;65;20334;-67
2022/03/06 13:33:41;;;;;;;3.28;1.90;;;14.10;57.40;;;;;;2152690;66;20742;-66
2022/03/06 13:36:23;;;;;;;2.72;1.98;;;14.20;57.10;;;;;;2146264;66;20379;-67
2022/03/06 13:39:14;;;;;;;3.97;2.15;;;14.40;56.80;;;;;;2144986;66;20342;-67
2022/03/06 13:41:59;;;;;;;3.13;1.92;;;14.80;55.70;;;;;;2123217;67;22091;-67
2022/03/06 13:44:58;;;;;;;3.08;2.30;;;14.60;55.00;;;;;;2140165;66;20920;-66
2022/03/06 13:47:42;;;;;;;6.40;2.38;;;14.30;55.20;;;;;;2139048;66;20178;-67
2022/03/06 13:50:50;;;;;;;7.43;3.88;;;14.70;55.30;;;;;;2137352;66;20195;-67
2022/03/06 13:53:35;;;;;;;3.78;2.25;;;14.90;54.90;;;;;;2133192;66;20347;-66
2022/03/06 13:56:26;;;;;;;2.90;2.30;;;15.60;54.70;;;;;;2134987;66;20356;-67
2022/03/06 13:59:22;;;;;;;4.53;2.20;;;15.90;52.90;;;;;;2136389;66;20231;-68
2022/03/06 14:02:11;;;;;;;3.42;2.20;;;15.80;53.40;;;;;;2145120;66;20446;-68
2022/03/06 14:04:56;;;;;;;3.05;1.85;;;16.40;53.20;;;;;;2147007;66;20197;-68
2022/03/06 14:07:37;;;;;;;3.72;1.98;;;17.20;51.80;;;;;;2147076;66;20245;-67
2022/03/06 14:10:37;;;;;;;3.25;1.88;;;17.70;50.40;;;;;;2148674;66;20232;-67
2022/03/06 14:13:38;;;;;;;3.40;2.45;;;18.10;49.60;;;;;;2145737;66;20267;-68
2022/03/06 14:16:22;;;;;;;4.03;1.80;;;18.50;48.40;;;;;;2132806;67;20184;-66
2022/03/06 14:19:04;;;;;;;4.53;2.22;;;18.30;48.30;;;;;;2130280;67;20596;-68
2022/03/06 14:21:48;;;;;;;5.97;2.63;;;19.00;47.70;;;;;;2131911;67;20911;-68
2022/03/06 14:24:33;;;;;;;3.28;1.92;;;19.50;46.70;;;;;;2141306;66;20295;-68